This is the latest recevied weather packets stored in our database for station/object N4DBJ. If no packets are shown the sender has not sent any weather packets the latest 10 day(s).
| Time | Temp. | Humidity | Pressure | Rain* | Wind** | Luminosity | Snow |
|---|---|---|---|---|---|---|---|
| 1777503435 | 20° C | 75% | 1010.1 hPa | 0 mm | - | 170 W/m² | - |
| 1777503130 | 19.44° C | 73% | 1010.4 hPa | 0 mm | - | 184 W/m² | - |
| 1777502829 | 20° C | 73% | 1010.4 hPa | 0 mm | - | 84 W/m² | - |
| 1777502525 | 20.56° C | 69% | 1010.1 hPa | 0 mm | - | 81 W/m² | - |
| 1777502223 | 22.22° C | 66% | 1010.1 hPa | 0 mm | - | 134 W/m² | - |
| 1777501919 | 21.11° C | 69% | 1010.2 hPa | 0 mm | - | 262 W/m² | - |
| 1777501616 | 21.11° C | 73% | 1010.4 hPa | 0 mm | - | 260 W/m² | - |
| 1777501313 | 21.67° C | 69% | 1010.5 hPa | 0 mm | - | 110 W/m² | - |
| 1777501011 | 20.56° C | 71% | 1010.4 hPa | 0 mm | - | 304 W/m² | - |
| 1777500709 | 21.11° C | 70% | 1010.3 hPa | 0 mm | - | 315 W/m² | - |
| 1777500405 | 21.11° C | 70% | 1010.3 hPa | 0 mm | - | 375 W/m² | - |
| 1777500101 | 20.56° C | 72% | 1010.3 hPa | 0 mm | - | 312 W/m² | - |
| 1777499798 | 20° C | 75% | 1010.4 hPa | 0 mm | - | 301 W/m² | - |
| 1777499494 | 19.44° C | 75% | 1010.3 hPa | 0 mm | - | 204 W/m² | - |
| 1777499193 | 19.44° C | 75% | 1010.6 hPa | 0 mm | - | 319 W/m² | - |
| 1777498889 | 20° C | 73% | 1010.6 hPa | 0 mm | - | 92 W/m² | - |
| 1777498586 | 20.56° C | 73% | 1010.3 hPa | 0 mm | - | 131 W/m² | - |
| 1777498282 | 20.56° C | 74% | 1010.5 hPa | 0 mm | - | 424 W/m² | - |
| 1777497981 | 20° C | 74% | 1010.4 hPa | 0 mm | - | 442 W/m² | - |
| 1777497676 | 20° C | 71% | 1010.5 hPa | 0 mm | - | 186 W/m² | - |
| 1777497373 | 21.11° C | 73% | 1010.5 hPa | 0 mm | - | 122 W/m² | - |
| 1777497069 | 20.56° C | 76% | 1010.5 hPa | 0 mm | - | 474 W/m² | - |
| 1777496766 | 20° C | 80% | 1010.6 hPa | 0 mm | - | 483 W/m² | - |
| 1777496463 | 20° C | 78% | 1010.6 hPa | 0 mm | - | 298 W/m² | - |
| 1777496159 | 20.56° C | 75% | 1010.6 hPa | 0 mm | - | 221 W/m² | - |
* Rain latest hour (hover to see other rain measurements)
** Current wind speed in m/s (hover to see current wind gust speed)